sensor_id;sensor_type;location;lat;lon;timestamp;P1;durP1;ratioP1;P2;durP2;ratioP2
75272;SDS011;63869;52.344;16.928;2024-01-10T00:00:04;96.03;;;30.30;;
75272;SDS011;63869;52.344;16.928;2024-01-10T00:02:29;107.15;;;32.97;;
75272;SDS011;63869;52.344;16.928;2024-01-10T00:04:54;102.85;;;32.97;;
75272;SDS011;63869;52.344;16.928;2024-01-10T00:07:20;106.28;;;33.42;;
75272;SDS011;63869;52.344;16.928;2024-01-10T00:09:45;107.25;;;30.35;;
75272;SDS011;63869;52.344;16.928;2024-01-10T00:12:11;87.72;;;29.58;;
75272;SDS011;63869;52.344;16.928;2024-01-10T00:14:36;89.78;;;29.80;;
75272;SDS011;63869;52.344;16.928;2024-01-10T00:17:01;111.38;;;29.65;;
75272;SDS011;63869;52.344;16.928;2024-01-10T00:19:27;77.43;;;27.55;;
75272;SDS011;63869;52.344;16.928;2024-01-10T00:21:52;82.18;;;28.42;;
75272;SDS011;63869;52.344;16.928;2024-01-10T00:24:17;92.47;;;29.73;;
75272;SDS011;63869;52.344;16.928;2024-01-10T00:26:42;92.10;;;28.25;;
75272;SDS011;63869;52.344;16.928;2024-01-10T00:29:08;82.03;;;27.42;;
75272;SDS011;63869;52.344;16.928;2024-01-10T00:31:33;76.28;;;26.67;;
75272;SDS011;63869;52.344;16.928;2024-01-10T00:33:59;81.30;;;27.02;;
75272;SDS011;63869;52.344;16.928;2024-01-10T00:36:25;80.47;;;28.50;;
75272;SDS011;63869;52.344;16.928;2024-01-10T00:38:50;89.47;;;27.95;;
75272;SDS011;63869;52.344;16.928;2024-01-10T00:41:16;82.55;;;26.63;;
75272;SDS011;63869;52.344;16.928;2024-01-10T00:43:41;87.63;;;27.58;;
75272;SDS011;63869;52.344;16.928;2024-01-10T00:46:06;71.68;;;28.40;;
75272;SDS011;63869;52.344;16.928;2024-01-10T00:48:31;90.22;;;30.20;;
75272;SDS011;63869;52.344;16.928;2024-01-10T00:50:57;80.15;;;29.55;;
75272;SDS011;63869;52.344;16.928;2024-01-10T00:53:23;89.03;;;28.38;;
75272;SDS011;63869;52.344;16.928;2024-01-10T00:55:48;76.05;;;27.73;;
75272;SDS011;63869;52.344;16.928;2024-01-10T00:58:13;78.35;;;25.58;;
75272;SDS011;63869;52.344;16.928;2024-01-10T01:00:39;70.47;;;26.95;;
75272;SDS011;63869;52.344;16.928;2024-01-10T01:03:04;79.82;;;26.55;;
75272;SDS011;63869;52.344;16.928;2024-01-10T01:05:29;78.90;;;26.20;;
75272;SDS011;63869;52.344;16.928;2024-01-10T01:07:55;77.15;;;26.88;;
75272;SDS011;63869;52.344;16.928;2024-01-10T01:10:20;63.35;;;25.05;;
75272;SDS011;63869;52.344;16.928;2024-01-10T01:12:46;65.60;;;24.33;;
75272;SDS011;63869;52.344;16.928;2024-01-10T01:15:11;77.35;;;26.48;;
75272;SDS011;63869;52.344;16.928;2024-01-10T01:17:37;74.78;;;26.55;;
75272;SDS011;63869;52.344;16.928;2024-01-10T01:20:02;82.65;;;26.60;;
75272;SDS011;63869;52.344;16.928;2024-01-10T01:22:30;73.88;;;26.65;;
75272;SDS011;63869;52.344;16.928;2024-01-10T01:24:56;75.13;;;25.05;;
75272;SDS011;63869;52.344;16.928;2024-01-10T01:27:21;73.85;;;26.52;;
75272;SDS011;63869;52.344;16.928;2024-01-10T01:29:46;79.53;;;29.00;;
75272;SDS011;63869;52.344;16.928;2024-01-10T01:32:12;95.05;;;32.15;;
75272;SDS011;63869;52.344;16.928;2024-01-10T01:34:37;82.43;;;28.80;;
75272;SDS011;63869;52.344;16.928;2024-01-10T01:37:02;95.00;;;31.50;;
75272;SDS011;63869;52.344;16.928;2024-01-10T01:39:29;85.65;;;31.52;;
75272;SDS011;63869;52.344;16.928;2024-01-10T01:41:54;98.70;;;30.83;;
75272;SDS011;63869;52.344;16.928;2024-01-10T01:44:19;89.32;;;32.65;;
75272;SDS011;63869;52.344;16.928;2024-01-10T01:46:45;99.55;;;31.58;;
75272;SDS011;63869;52.344;16.928;2024-01-10T01:49:11;79.80;;;30.50;;
75272;SDS011;63869;52.344;16.928;2024-01-10T01:51:36;103.32;;;31.02;;
75272;SDS011;63869;52.344;16.928;2024-01-10T01:54:03;105.15;;;33.05;;
75272;SDS011;63869;52.344;16.928;2024-01-10T01:56:29;104.15;;;32.85;;
75272;SDS011;63869;52.344;16.928;2024-01-10T01:58:54;105.53;;;33.15;;
75272;SDS011;63869;52.344;16.928;2024-01-10T02:01:20;107.90;;;33.47;;
75272;SDS011;63869;52.344;16.928;2024-01-10T02:03:46;90.07;;;30.52;;
75272;SDS011;63869;52.344;16.928;2024-01-10T02:06:12;93.20;;;29.90;;
75272;SDS011;63869;52.344;16.928;2024-01-10T02:08:37;76.38;;;29.13;;
75272;SDS011;63869;52.344;16.928;2024-01-10T02:11:02;90.72;;;30.80;;
75272;SDS011;63869;52.344;16.928;2024-01-10T02:13:28;96.28;;;29.25;;
75272;SDS011;63869;52.344;16.928;2024-01-10T02:15:54;84.38;;;28.40;;
75272;SDS011;63869;52.344;16.928;2024-01-10T02:18:19;85.40;;;30.52;;
75272;SDS011;63869;52.344;16.928;2024-01-10T02:20:44;77.82;;;27.50;;
75272;SDS011;63869;52.344;16.928;2024-01-10T02:23:10;86.55;;;27.15;;
75272;SDS011;63869;52.344;16.928;2024-01-10T02:25:35;87.18;;;27.98;;
75272;SDS011;63869;52.344;16.928;2024-01-10T02:28:01;82.30;;;28.58;;
75272;SDS011;63869;52.344;16.928;2024-01-10T02:30:26;85.07;;;27.80;;
75272;SDS011;63869;52.344;16.928;2024-01-10T02:32:51;103.95;;;31.88;;
75272;SDS011;63869;52.344;16.928;2024-01-10T02:35:17;102.20;;;32.88;;
75272;SDS011;63869;52.344;16.928;2024-01-10T02:37:42;87.38;;;28.63;;
75272;SDS011;63869;52.344;16.928;2024-01-10T02:40:08;85.57;;;29.40;;
75272;SDS011;63869;52.344;16.928;2024-01-10T02:42:33;85.20;;;30.98;;
75272;SDS011;63869;52.344;16.928;2024-01-10T02:44:59;101.70;;;31.30;;
75272;SDS011;63869;52.344;16.928;2024-01-10T02:47:24;89.20;;;29.80;;
75272;SDS011;63869;52.344;16.928;2024-01-10T02:49:49;86.55;;;29.30;;
75272;SDS011;63869;52.344;16.928;2024-01-10T02:52:15;82.93;;;27.52;;
75272;SDS011;63869;52.344;16.928;2024-01-10T02:54:40;74.57;;;25.92;;
75272;SDS011;63869;52.344;16.928;2024-01-10T02:57:06;80.10;;;25.90;;
75272;SDS011;63869;52.344;16.928;2024-01-10T02:59:31;90.60;;;27.70;;
75272;SDS011;63869;52.344;16.928;2024-01-10T03:01:56;79.05;;;27.80;;
75272;SDS011;63869;52.344;16.928;2024-01-10T03:04:22;100.07;;;27.23;;
75272;SDS011;63869;52.344;16.928;2024-01-10T03:06:47;97.55;;;31.00;;
75272;SDS011;63869;52.344;16.928;2024-01-10T03:09:12;94.55;;;29.40;;
75272;SDS011;63869;52.344;16.928;2024-01-10T03:11:38;99.90;;;31.33;;
75272;SDS011;63869;52.344;16.928;2024-01-10T03:14:04;94.10;;;30.30;;
75272;SDS011;63869;52.344;16.928;2024-01-10T03:16:32;94.63;;;29.73;;
75272;SDS011;63869;52.344;16.928;2024-01-10T03:18:57;88.13;;;31.30;;
75272;SDS011;63869;52.344;16.928;2024-01-10T03:21:22;98.53;;;31.13;;
75272;SDS011;63869;52.344;16.928;2024-01-10T03:23:56;91.20;;;27.88;;
75272;SDS011;63869;52.344;16.928;2024-01-10T03:26:22;93.50;;;27.88;;
75272;SDS011;63869;52.344;16.928;2024-01-10T03:28:47;74.15;;;26.33;;
75272;SDS011;63869;52.344;16.928;2024-01-10T03:31:12;83.85;;;27.63;;
75272;SDS011;63869;52.344;16.928;2024-01-10T03:33:38;68.63;;;26.63;;
75272;SDS011;63869;52.344;16.928;2024-01-10T03:36:04;81.35;;;25.20;;
75272;SDS011;63869;52.344;16.928;2024-01-10T03:38:30;71.22;;;25.10;;
75272;SDS011;63869;52.344;16.928;2024-01-10T03:40:55;78.22;;;26.23;;
75272;SDS011;63869;52.344;16.928;2024-01-10T03:43:20;77.15;;;25.30;;
75272;SDS011;63869;52.344;16.928;2024-01-10T03:45:45;76.07;;;26.60;;
75272;SDS011;63869;52.344;16.928;2024-01-10T03:48:11;76.38;;;25.30;;
75272;SDS011;63869;52.344;16.928;2024-01-10T03:50:36;86.47;;;28.75;;
75272;SDS011;63869;52.344;16.928;2024-01-10T03:53:01;74.22;;;27.02;;
75272;SDS011;63869;52.344;16.928;2024-01-10T03:55:27;92.57;;;27.60;;
75272;SDS011;63869;52.344;16.928;2024-01-10T03:57:52;79.80;;;26.95;;
75272;SDS011;63869;52.344;16.928;2024-01-10T04:00:17;81.38;;;27.45;;
75272;SDS011;63869;52.344;16.928;2024-01-10T04:02:43;90.10;;;27.80;;
75272;SDS011;63869;52.344;16.928;2024-01-10T04:05:08;80.22;;;26.95;;
75272;SDS011;63869;52.344;16.928;2024-01-10T04:07:41;97.93;;;31.27;;
75272;SDS011;63869;52.344;16.928;2024-01-10T04:10:09;84.70;;;28.08;;
75272;SDS011;63869;52.344;16.928;2024-01-10T04:12:36;100.50;;;30.63;;
75272;SDS011;63869;52.344;16.928;2024-01-10T04:15:02;86.97;;;26.85;;
75272;SDS011;63869;52.344;16.928;2024-01-10T04:17:27;86.45;;;28.10;;
75272;SDS011;63869;52.344;16.928;2024-01-10T04:19:53;103.07;;;28.20;;
75272;SDS011;63869;52.344;16.928;2024-01-10T04:22:18;80.00;;;26.48;;
75272;SDS011;63869;52.344;16.928;2024-01-10T04:24:43;89.32;;;28.45;;
75272;SDS011;63869;52.344;16.928;2024-01-10T04:27:09;90.65;;;29.55;;
75272;SDS011;63869;52.344;16.928;2024-01-10T04:29:34;80.75;;;28.95;;
75272;SDS011;63869;52.344;16.928;2024-01-10T04:31:59;84.97;;;28.50;;
75272;SDS011;63869;52.344;16.928;2024-01-10T04:34:25;80.85;;;28.65;;
75272;SDS011;63869;52.344;16.928;2024-01-10T04:36:50;92.53;;;28.55;;
75272;SDS011;63869;52.344;16.928;2024-01-10T04:39:16;86.78;;;26.52;;
75272;SDS011;63869;52.344;16.928;2024-01-10T04:41:41;93.53;;;29.23;;
75272;SDS011;63869;52.344;16.928;2024-01-10T04:44:06;79.55;;;27.63;;
75272;SDS011;63869;52.344;16.928;2024-01-10T04:46:32;79.90;;;27.90;;
75272;SDS011;63869;52.344;16.928;2024-01-10T04:48:58;67.78;;;26.80;;
75272;SDS011;63869;52.344;16.928;2024-01-10T04:51:24;77.95;;;28.83;;
75272;SDS011;63869;52.344;16.928;2024-01-10T04:53:49;86.05;;;29.98;;
75272;SDS011;63869;52.344;16.928;2024-01-10T04:56:14;59.95;;;24.05;;
75272;SDS011;63869;52.344;16.928;2024-01-10T04:58:39;84.22;;;28.02;;
75272;SDS011;63869;52.344;16.928;2024-01-10T05:01:05;75.30;;;26.67;;
75272;SDS011;63869;52.344;16.928;2024-01-10T05:03:31;78.93;;;25.65;;
75272;SDS011;63869;52.344;16.928;2024-01-10T05:05:56;71.80;;;25.30;;
75272;SDS011;63869;52.344;16.928;2024-01-10T05:08:21;102.95;;;29.58;;
75272;SDS011;63869;52.344;16.928;2024-01-10T05:10:47;79.60;;;29.42;;
75272;SDS011;63869;52.344;16.928;2024-01-10T05:13:12;75.47;;;28.08;;
75272;SDS011;63869;52.344;16.928;2024-01-10T05:15:37;85.95;;;29.73;;
75272;SDS011;63869;52.344;16.928;2024-01-10T05:18:03;91.57;;;31.83;;
75272;SDS011;63869;52.344;16.928;2024-01-10T05:20:28;99.75;;;32.60;;
75272;SDS011;63869;52.344;16.928;2024-01-10T05:22:53;116.82;;;36.67;;
75272;SDS011;63869;52.344;16.928;2024-01-10T05:25:19;109.78;;;35.25;;
75272;SDS011;63869;52.344;16.928;2024-01-10T05:27:44;110.00;;;33.97;;
75272;SDS011;63869;52.344;16.928;2024-01-10T05:30:09;110.22;;;34.28;;
75272;SDS011;63869;52.344;16.928;2024-01-10T05:32:37;118.93;;;35.40;;
75272;SDS011;63869;52.344;16.928;2024-01-10T05:35:03;109.45;;;34.55;;
75272;SDS011;63869;52.344;16.928;2024-01-10T05:37:28;117.88;;;37.05;;
75272;SDS011;63869;52.344;16.928;2024-01-10T05:39:53;98.35;;;34.75;;
75272;SDS011;63869;52.344;16.928;2024-01-10T05:42:18;93.60;;;32.42;;
75272;SDS011;63869;52.344;16.928;2024-01-10T05:44:44;90.70;;;31.27;;
75272;SDS011;63869;52.344;16.928;2024-01-10T05:47:09;92.68;;;29.98;;
75272;SDS011;63869;52.344;16.928;2024-01-10T05:49:34;91.15;;;32.70;;
75272;SDS011;63869;52.344;16.928;2024-01-10T05:52:03;95.22;;;32.08;;
75272;SDS011;63869;52.344;16.928;2024-01-10T05:54:28;94.78;;;32.30;;
75272;SDS011;63869;52.344;16.928;2024-01-10T05:56:53;92.07;;;31.60;;
75272;SDS011;63869;52.344;16.928;2024-01-10T05:59:19;98.80;;;32.28;;
75272;SDS011;63869;52.344;16.928;2024-01-10T06:01:44;93.97;;;31.88;;
75272;SDS011;63869;52.344;16.928;2024-01-10T06:04:09;85.13;;;31.88;;
75272;SDS011;63869;52.344;16.928;2024-01-10T06:06:34;88.53;;;31.35;;
75272;SDS011;63869;52.344;16.928;2024-01-10T06:09:00;82.60;;;27.98;;
75272;SDS011;63869;52.344;16.928;2024-01-10T06:11:25;81.15;;;27.83;;
75272;SDS011;63869;52.344;16.928;2024-01-10T06:13:50;81.90;;;29.83;;
75272;SDS011;63869;52.344;16.928;2024-01-10T06:16:16;75.90;;;28.10;;
75272;SDS011;63869;52.344;16.928;2024-01-10T06:18:41;93.18;;;31.02;;
75272;SDS011;63869;52.344;16.928;2024-01-10T06:21:07;103.85;;;30.23;;
75272;SDS011;63869;52.344;16.928;2024-01-10T06:23:32;100.10;;;31.08;;
75272;SDS011;63869;52.344;16.928;2024-01-10T06:25:58;80.45;;;28.65;;
75272;SDS011;63869;52.344;16.928;2024-01-10T06:28:23;90.30;;;31.90;;
75272;SDS011;63869;52.344;16.928;2024-01-10T06:30:48;92.75;;;29.65;;
75272;SDS011;63869;52.344;16.928;2024-01-10T06:33:14;87.80;;;29.60;;
75272;SDS011;63869;52.344;16.928;2024-01-10T06:35:40;105.40;;;33.38;;
75272;SDS011;63869;52.344;16.928;2024-01-10T06:38:06;94.15;;;30.40;;
75272;SDS011;63869;52.344;16.928;2024-01-10T06:40:31;96.60;;;33.53;;
75272;SDS011;63869;52.344;16.928;2024-01-10T06:42:57;100.30;;;33.40;;
75272;SDS011;63869;52.344;16.928;2024-01-10T06:45:22;87.90;;;30.85;;
75272;SDS011;63869;52.344;16.928;2024-01-10T06:47:47;75.40;;;30.70;;
75272;SDS011;63869;52.344;16.928;2024-01-10T06:50:13;88.00;;;31.48;;
75272;SDS011;63869;52.344;16.928;2024-01-10T06:52:38;105.78;;;32.08;;
75272;SDS011;63869;52.344;16.928;2024-01-10T06:55:03;84.85;;;30.63;;
75272;SDS011;63869;52.344;16.928;2024-01-10T06:57:29;139.45;;;38.30;;
75272;SDS011;63869;52.344;16.928;2024-01-10T06:59:57;204.60;;;45.90;;
75272;SDS011;63869;52.344;16.928;2024-01-10T07:02:26;197.43;;;50.00;;
75272;SDS011;63869;52.344;16.928;2024-01-10T07:04:57;138.65;;;40.72;;
75272;SDS011;63869;52.344;16.928;2024-01-10T10:10:45;77.40;;;28.23;;
75272;SDS011;63869;52.344;16.928;2024-01-10T10:28:29;73.28;;;27.20;;
75272;SDS011;63869;52.344;16.928;2024-01-10T10:31:00;79.43;;;25.52;;
75272;SDS011;63869;52.344;16.928;2024-01-10T10:48:23;59.58;;;23.13;;
75272;SDS011;63869;52.344;16.928;2024-01-10T10:51:32;77.38;;;25.60;;
75272;SDS011;63869;52.344;16.928;2024-01-10T10:53:39;77.07;;;27.52;;
75272;SDS011;63869;52.344;16.928;2024-01-10T10:56:06;99.90;;;34.38;;
75272;SDS011;63869;52.344;16.928;2024-01-10T10:58:42;91.75;;;33.45;;
75272;SDS011;63869;52.344;16.928;2024-01-10T11:01:08;113.60;;;34.90;;
75272;SDS011;63869;52.344;16.928;2024-01-10T11:03:37;102.00;;;35.35;;
75272;SDS011;63869;52.344;16.928;2024-01-10T11:06:03;101.88;;;34.22;;
75272;SDS011;63869;52.344;16.928;2024-01-10T11:08:34;111.65;;;35.90;;
75272;SDS011;63869;52.344;16.928;2024-01-10T11:11:00;108.07;;;34.47;;
75272;SDS011;63869;52.344;16.928;2024-01-10T11:13:37;105.85;;;36.42;;
75272;SDS011;63869;52.344;16.928;2024-01-10T11:16:29;108.75;;;35.25;;
75272;SDS011;63869;52.344;16.928;2024-01-10T11:24:10;116.60;;;37.90;;
75272;SDS011;63869;52.344;16.928;2024-01-10T11:26:39;180.55;;;53.45;;
75272;SDS011;63869;52.344;16.928;2024-01-10T11:29:04;124.45;;;43.50;;
75272;SDS011;63869;52.344;16.928;2024-01-10T11:31:30;122.30;;;42.03;;
75272;SDS011;63869;52.344;16.928;2024-01-10T11:34:00;131.57;;;40.08;;
75272;SDS011;63869;52.344;16.928;2024-01-10T11:36:25;126.85;;;43.67;;
75272;SDS011;63869;52.344;16.928;2024-01-10T11:44:16;135.13;;;47.17;;
75272;SDS011;63869;52.344;16.928;2024-01-10T11:46:32;139.23;;;47.60;;
75272;SDS011;63869;52.344;16.928;2024-01-10T11:48:58;147.02;;;47.72;;
75272;SDS011;63869;52.344;16.928;2024-01-10T11:51:24;150.57;;;49.03;;
75272;SDS011;63869;52.344;16.928;2024-01-10T11:53:49;157.40;;;49.60;;
75272;SDS011;63869;52.344;16.928;2024-01-10T11:56:15;143.20;;;46.88;;
75272;SDS011;63869;52.344;16.928;2024-01-10T12:01:25;85.00;;;29.65;;
75272;SDS011;63869;52.344;16.928;2024-01-10T12:03:52;107.47;;;32.90;;
75272;SDS011;63869;52.344;16.928;2024-01-10T12:06:18;64.70;;;24.10;;
75272;SDS011;63869;52.344;16.928;2024-01-10T12:08:45;61.42;;;24.00;;
75272;SDS011;63869;52.344;16.928;2024-01-10T12:11:10;67.95;;;23.42;;
75272;SDS011;63869;52.344;16.928;2024-01-10T12:13:35;62.33;;;23.73;;
75272;SDS011;63869;52.344;16.928;2024-01-10T12:16:01;57.00;;;17.63;;
75272;SDS011;63869;52.344;16.928;2024-01-10T12:18:26;45.67;;;16.65;;
75272;SDS011;63869;52.344;16.928;2024-01-10T12:20:52;41.65;;;16.05;;
75272;SDS011;63869;52.344;16.928;2024-01-10T12:23:17;46.53;;;16.15;;
75272;SDS011;63869;52.344;16.928;2024-01-10T12:25:42;48.63;;;17.20;;
75272;SDS011;63869;52.344;16.928;2024-01-10T12:28:08;80.38;;;20.27;;
75272;SDS011;63869;52.344;16.928;2024-01-10T12:30:33;44.30;;;17.50;;
75272;SDS011;63869;52.344;16.928;2024-01-10T12:32:59;60.03;;;17.95;;
75272;SDS011;63869;52.344;16.928;2024-01-10T12:35:28;49.00;;;17.38;;
75272;SDS011;63869;52.344;16.928;2024-01-10T13:10:54;63.13;;;23.02;;
75272;SDS011;63869;52.344;16.928;2024-01-10T14:02:12;62.00;;;22.40;;
75272;SDS011;63869;52.344;16.928;2024-01-10T14:04:37;59.33;;;22.08;;
75272;SDS011;63869;52.344;16.928;2024-01-10T14:14:29;63.17;;;24.67;;
75272;SDS011;63869;52.344;16.928;2024-01-10T14:17:00;68.38;;;24.42;;
75272;SDS011;63869;52.344;16.928;2024-01-10T14:21:59;71.28;;;24.77;;
75272;SDS011;63869;52.344;16.928;2024-01-10T14:24:27;71.35;;;22.48;;
75272;SDS011;63869;52.344;16.928;2024-01-10T14:26:58;66.88;;;22.88;;
75272;SDS011;63869;52.344;16.928;2024-01-10T14:29:23;59.80;;;22.00;;
75272;SDS011;63869;52.344;16.928;2024-01-10T14:31:49;76.15;;;25.08;;
75272;SDS011;63869;52.344;16.928;2024-01-10T14:34:14;63.88;;;23.98;;
75272;SDS011;63869;52.344;16.928;2024-01-10T14:36:40;60.15;;;22.23;;
75272;SDS011;63869;52.344;16.928;2024-01-10T14:39:05;61.90;;;22.45;;
75272;SDS011;63869;52.344;16.928;2024-01-10T14:41:34;62.65;;;21.48;;
75272;SDS011;63869;52.344;16.928;2024-01-10T14:43:59;61.95;;;22.85;;
75272;SDS011;63869;52.344;16.928;2024-01-10T14:46:25;61.17;;;22.75;;
75272;SDS011;63869;52.344;16.928;2024-01-10T14:48:52;69.13;;;23.15;;
75272;SDS011;63869;52.344;16.928;2024-01-10T14:51:17;65.55;;;24.70;;
75272;SDS011;63869;52.344;16.928;2024-01-10T14:53:42;74.97;;;23.52;;
75272;SDS011;63869;52.344;16.928;2024-01-10T14:56:07;71.40;;;23.90;;
75272;SDS011;63869;52.344;16.928;2024-01-10T14:58:33;67.57;;;22.75;;
75272;SDS011;63869;52.344;16.928;2024-01-10T15:00:58;63.33;;;23.27;;
75272;SDS011;63869;52.344;16.928;2024-01-10T15:03:24;71.05;;;23.83;;
75272;SDS011;63869;52.344;16.928;2024-01-10T15:05:51;97.53;;;31.05;;
75272;SDS011;63869;52.344;16.928;2024-01-10T15:08:16;146.32;;;43.78;;
75272;SDS011;63869;52.344;16.928;2024-01-10T15:10:42;130.05;;;42.45;;
75272;SDS011;63869;52.344;16.928;2024-01-10T15:13:11;129.00;;;40.38;;
75272;SDS011;63869;52.344;16.928;2024-01-10T15:15:37;109.13;;;36.45;;
75272;SDS011;63869;52.344;16.928;2024-01-10T15:18:03;89.82;;;30.80;;
75272;SDS011;63869;52.344;16.928;2024-01-10T15:20:29;113.85;;;35.78;;
75272;SDS011;63869;52.344;16.928;2024-01-10T15:22:54;265.90;;;59.22;;
75272;SDS011;63869;52.344;16.928;2024-01-10T15:25:19;123.70;;;36.88;;
75272;SDS011;63869;52.344;16.928;2024-01-10T15:27:45;94.85;;;31.25;;
75272;SDS011;63869;52.344;16.928;2024-01-10T15:30:10;95.43;;;31.20;;
75272;SDS011;63869;52.344;16.928;2024-01-10T15:32:36;99.65;;;34.22;;
75272;SDS011;63869;52.344;16.928;2024-01-10T15:35:01;105.95;;;35.50;;
75272;SDS011;63869;52.344;16.928;2024-01-10T15:37:29;123.03;;;39.60;;
75272;SDS011;63869;52.344;16.928;2024-01-10T15:39:55;132.32;;;44.10;;
75272;SDS011;63869;52.344;16.928;2024-01-10T15:42:20;129.48;;;38.42;;
75272;SDS011;63869;52.344;16.928;2024-01-10T15:44:45;113.05;;;36.67;;
75272;SDS011;63869;52.344;16.928;2024-01-10T15:47:11;103.63;;;33.70;;
75272;SDS011;63869;52.344;16.928;2024-01-10T15:49:36;105.68;;;34.70;;
75272;SDS011;63869;52.344;16.928;2024-01-10T15:52:01;101.45;;;33.35;;
75272;SDS011;63869;52.344;16.928;2024-01-10T15:54:27;96.57;;;32.95;;
75272;SDS011;63869;52.344;16.928;2024-01-10T15:56:53;98.15;;;34.22;;
75272;SDS011;63869;52.344;16.928;2024-01-10T15:59:18;92.30;;;32.15;;
75272;SDS011;63869;52.344;16.928;2024-01-10T16:01:43;95.85;;;34.05;;
75272;SDS011;63869;52.344;16.928;2024-01-10T16:04:10;105.95;;;32.33;;
75272;SDS011;63869;52.344;16.928;2024-01-10T16:06:44;103.35;;;32.13;;
75272;SDS011;63869;52.344;16.928;2024-01-10T16:09:22;116.32;;;36.67;;
75272;SDS011;63869;52.344;16.928;2024-01-10T16:11:53;101.70;;;35.78;;
75272;SDS011;63869;52.344;16.928;2024-01-10T16:14:18;118.95;;;36.92;;
75272;SDS011;63869;52.344;16.928;2024-01-10T16:16:49;118.60;;;41.10;;
75272;SDS011;63869;52.344;16.928;2024-01-10T16:19:15;122.95;;;41.95;;
75272;SDS011;63869;52.344;16.928;2024-01-10T16:21:40;129.98;;;43.78;;
75272;SDS011;63869;52.344;16.928;2024-01-10T16:24:06;143.68;;;43.97;;
75272;SDS011;63869;52.344;16.928;2024-01-10T16:26:33;119.65;;;38.58;;
75272;SDS011;63869;52.344;16.928;2024-01-10T16:28:58;133.02;;;42.00;;
75272;SDS011;63869;52.344;16.928;2024-01-10T16:31:24;160.82;;;52.05;;
75272;SDS011;63869;52.344;16.928;2024-01-10T16:33:49;135.60;;;43.10;;
75272;SDS011;63869;52.344;16.928;2024-01-10T16:36:15;136.55;;;44.15;;
75272;SDS011;63869;52.344;16.928;2024-01-10T16:38:40;138.43;;;43.40;;
75272;SDS011;63869;52.344;16.928;2024-01-10T16:41:06;167.95;;;50.65;;
75272;SDS011;63869;52.344;16.928;2024-01-10T16:43:31;160.30;;;51.53;;
75272;SDS011;63869;52.344;16.928;2024-01-10T16:45:56;140.13;;;46.78;;
75272;SDS011;63869;52.344;16.928;2024-01-10T16:48:23;161.02;;;50.83;;
75272;SDS011;63869;52.344;16.928;2024-01-10T16:50:48;155.45;;;49.75;;
75272;SDS011;63869;52.344;16.928;2024-01-10T16:53:14;171.40;;;49.72;;
75272;SDS011;63869;52.344;16.928;2024-01-10T16:55:40;168.70;;;49.40;;
75272;SDS011;63869;52.344;16.928;2024-01-10T16:58:06;153.38;;;46.83;;
75272;SDS011;63869;52.344;16.928;2024-01-10T17:00:31;142.02;;;44.90;;
75272;SDS011;63869;52.344;16.928;2024-01-10T17:02:57;155.45;;;46.90;;
75272;SDS011;63869;52.344;16.928;2024-01-10T17:05:23;135.88;;;44.97;;
75272;SDS011;63869;52.344;16.928;2024-01-10T17:07:49;138.73;;;47.10;;
75272;SDS011;63869;52.344;16.928;2024-01-10T17:10:18;154.80;;;49.97;;
75272;SDS011;63869;52.344;16.928;2024-01-10T17:28:11;226.88;;;64.22;;
75272;SDS011;63869;52.344;16.928;2024-01-10T17:30:38;235.50;;;62.92;;
75272;SDS011;63869;52.344;16.928;2024-01-10T17:33:06;244.15;;;66.50;;
75272;SDS011;63869;52.344;16.928;2024-01-10T18:32:12;202.35;;;66.95;;
75272;SDS011;63869;52.344;16.928;2024-01-10T18:34:37;208.95;;;63.88;;
75272;SDS011;63869;52.344;16.928;2024-01-10T18:37:03;231.65;;;73.90;;
75272;SDS011;63869;52.344;16.928;2024-01-10T18:39:31;247.35;;;77.45;;
75272;SDS011;63869;52.344;16.928;2024-01-10T18:41:57;233.88;;;74.82;;
75272;SDS011;63869;52.344;16.928;2024-01-10T18:44:22;228.85;;;71.28;;
75272;SDS011;63869;52.344;16.928;2024-01-10T18:46:48;206.15;;;67.00;;
75272;SDS011;63869;52.344;16.928;2024-01-10T18:49:13;228.45;;;67.50;;
75272;SDS011;63869;52.344;16.928;2024-01-10T18:51:39;230.23;;;66.40;;
75272;SDS011;63869;52.344;16.928;2024-01-10T18:54:04;242.38;;;65.60;;
75272;SDS011;63869;52.344;16.928;2024-01-10T18:56:30;252.88;;;73.40;;
75272;SDS011;63869;52.344;16.928;2024-01-10T18:58:55;233.85;;;66.53;;
75272;SDS011;63869;52.344;16.928;2024-01-10T19:01:20;217.30;;;66.95;;
75272;SDS011;63869;52.344;16.928;2024-01-10T19:03:46;218.35;;;66.82;;
75272;SDS011;63869;52.344;16.928;2024-01-10T22:13:00;98.85;;;31.80;;
75272;SDS011;63869;52.344;16.928;2024-01-10T22:15:35;95.55;;;31.77;;
75272;SDS011;63869;52.344;16.928;2024-01-10T22:18:03;95.10;;;30.67;;
75272;SDS011;63869;52.344;16.928;2024-01-10T22:20:29;85.30;;;30.42;;
75272;SDS011;63869;52.344;16.928;2024-01-10T22:22:54;99.88;;;31.80;;
75272;SDS011;63869;52.344;16.928;2024-01-10T22:25:20;96.75;;;30.50;;
75272;SDS011;63869;52.344;16.928;2024-01-10T22:27:45;99.43;;;29.52;;
75272;SDS011;63869;52.344;16.928;2024-01-10T22:30:11;82.35;;;28.40;;
75272;SDS011;63869;52.344;16.928;2024-01-10T22:32:36;89.70;;;27.98;;
75272;SDS011;63869;52.344;16.928;2024-01-10T22:35:03;94.47;;;28.13;;
75272;SDS011;63869;52.344;16.928;2024-01-10T22:37:36;77.47;;;28.08;;
75272;SDS011;63869;52.344;16.928;2024-01-10T22:40:01;80.07;;;26.98;;
75272;SDS011;63869;52.344;16.928;2024-01-10T22:50:04;65.10;;;24.08;;
75272;SDS011;63869;52.344;16.928;2024-01-10T22:52:34;66.15;;;23.55;;
75272;SDS011;63869;52.344;16.928;2024-01-10T22:55:09;63.38;;;23.17;;
75272;SDS011;63869;52.344;16.928;2024-01-10T23:02:36;57.90;;;20.90;;
75272;SDS011;63869;52.344;16.928;2024-01-10T23:05:04;50.55;;;19.60;;
75272;SDS011;63869;52.344;16.928;2024-01-10T23:07:32;57.05;;;20.05;;
75272;SDS011;63869;52.344;16.928;2024-01-10T23:09:58;57.58;;;20.58;;
75272;SDS011;63869;52.344;16.928;2024-01-10T23:12:25;47.70;;;18.02;;
75272;SDS011;63869;52.344;16.928;2024-01-10T23:14:50;44.70;;;16.00;;
75272;SDS011;63869;52.344;16.928;2024-01-10T23:17:16;41.00;;;15.02;;
75272;SDS011;63869;52.344;16.928;2024-01-10T23:19:41;36.25;;;13.80;;
75272;SDS011;63869;52.344;16.928;2024-01-10T23:22:06;44.03;;;16.17;;
75272;SDS011;63869;52.344;16.928;2024-01-10T23:24:32;35.53;;;14.90;;
75272;SDS011;63869;52.344;16.928;2024-01-10T23:26:57;33.88;;;12.07;;
75272;SDS011;63869;52.344;16.928;2024-01-10T23:29:22;41.55;;;14.27;;
75272;SDS011;63869;52.344;16.928;2024-01-10T23:31:50;30.60;;;12.20;;
75272;SDS011;63869;52.344;16.928;2024-01-10T23:34:15;41.58;;;13.43;;
75272;SDS011;63869;52.344;16.928;2024-01-10T23:36:41;34.35;;;12.40;;
75272;SDS011;63869;52.344;16.928;2024-01-10T23:39:06;39.83;;;13.55;;
75272;SDS011;63869;52.344;16.928;2024-01-10T23:41:31;40.25;;;12.73;;
75272;SDS011;63869;52.344;16.928;2024-01-10T23:43:57;33.55;;;12.10;;
75272;SDS011;63869;52.344;16.928;2024-01-10T23:46:22;38.25;;;13.60;;